sensor_id;sensor_type;location;lat;lon;timestamp;pressure;altitude;pressure_sealevel;temperature;humidity
73457;BME280;61691;53.072;6.582;2024-02-21T00:02:21;101941.03;;;9.94;86.88
73457;BME280;61691;53.072;6.582;2024-02-21T00:04:48;101932.25;;;9.93;87.11
73457;BME280;61691;53.072;6.582;2024-02-21T00:07:15;101931.00;;;9.99;87.24
73457;BME280;61691;53.072;6.582;2024-02-21T00:09:42;101936.06;;;10.02;86.62
73457;BME280;61691;53.072;6.582;2024-02-21T00:12:09;101928.44;;;9.85;86.83
73457;BME280;61691;53.072;6.582;2024-02-21T00:14:36;101932.66;;;10.00;86.67
73457;BME280;61691;53.072;6.582;2024-02-21T00:17:02;101926.09;;;9.93;87.09
73457;BME280;61691;53.072;6.582;2024-02-21T00:19:29;101940.09;;;9.95;86.83
73457;BME280;61691;53.072;6.582;2024-02-21T00:21:56;101926.09;;;9.93;87.23
73457;BME280;61691;53.072;6.582;2024-02-21T00:24:23;101911.78;;;9.83;87.01
73457;BME280;61691;53.072;6.582;2024-02-21T00:26:49;101921.03;;;9.90;87.19
73457;BME280;61691;53.072;6.582;2024-02-21T00:29:16;101938.63;;;9.91;86.92
73457;BME280;61691;53.072;6.582;2024-02-21T00:31:43;101938.81;;;9.88;86.96
73457;BME280;61691;53.072;6.582;2024-02-21T00:34:11;101936.16;;;9.88;87.25
73457;BME280;61691;53.072;6.582;2024-02-21T00:36:39;101911.22;;;9.78;87.21
73457;BME280;61691;53.072;6.582;2024-02-21T00:39:06;101893.03;;;9.73;87.24
73457;BME280;61691;53.072;6.582;2024-02-21T00:41:33;101910.63;;;9.87;87.38
73457;BME280;61691;53.072;6.582;2024-02-21T00:43:59;101885.84;;;9.75;87.22
73457;BME280;61691;53.072;6.582;2024-02-21T00:46:26;101903.84;;;9.83;87.46
73457;BME280;61691;53.072;6.582;2024-02-21T00:48:53;101897.28;;;9.88;87.17
73457;BME280;61691;53.072;6.582;2024-02-21T00:51:20;101851.19;;;9.65;87.37
73457;BME280;61691;53.072;6.582;2024-02-21T00:53:47;101874.81;;;9.81;87.55
73457;BME280;61691;53.072;6.582;2024-02-21T00:56:13;101868.88;;;9.78;87.35
73457;BME280;61691;53.072;6.582;2024-02-21T00:58:40;101877.38;;;9.83;87.97
73457;BME280;61691;53.072;6.582;2024-02-21T01:01:07;101863.81;;;9.75;87.50
73457;BME280;61691;53.072;6.582;2024-02-21T01:03:34;101857.75;;;9.73;87.60
73457;BME280;61691;53.072;6.582;2024-02-21T01:06:00;101845.56;;;9.70;87.92
73457;BME280;61691;53.072;6.582;2024-02-21T01:08:27;101804.03;;;9.45;87.70
73457;BME280;61691;53.072;6.582;2024-02-21T01:10:54;101862.44;;;9.82;87.89
73457;BME280;61691;53.072;6.582;2024-02-21T01:13:21;101842.81;;;9.71;88.17
73457;BME280;61691;53.072;6.582;2024-02-21T01:15:47;101849.81;;;9.73;88.09
73457;BME280;61691;53.072;6.582;2024-02-21T01:18:14;101857.97;;;9.69;88.24
73457;BME280;61691;53.072;6.582;2024-02-21T01:20:41;101845.78;;;9.67;88.52
73457;BME280;61691;53.072;6.582;2024-02-21T01:23:08;101859.53;;;9.72;88.15
73457;BME280;61691;53.072;6.582;2024-02-21T01:25:34;101837.72;;;9.56;88.41
73457;BME280;61691;53.072;6.582;2024-02-21T01:28:01;101856.38;;;9.67;88.52
73457;BME280;61691;53.072;6.582;2024-02-21T01:30:28;101851.19;;;9.65;88.41
73457;BME280;61691;53.072;6.582;2024-02-21T01:32:55;101856.47;;;9.65;88.56
73457;BME280;61691;53.072;6.582;2024-02-21T01:35:21;101845.34;;;9.60;88.97
73457;BME280;61691;53.072;6.582;2024-02-21T01:37:48;101850.22;;;9.66;88.96
73457;BME280;61691;53.072;6.582;2024-02-21T01:40:15;101799.38;;;9.36;89.00
73457;BME280;61691;53.072;6.582;2024-02-21T01:42:42;101850.22;;;9.66;88.93
73457;BME280;61691;53.072;6.582;2024-02-21T01:45:10;101853.81;;;9.65;88.83
73457;BME280;61691;53.072;6.582;2024-02-21T01:47:37;101856.81;;;9.74;89.15
73457;BME280;61691;53.072;6.582;2024-02-21T01:50:04;101831.38;;;9.58;88.99
73457;BME280;61691;53.072;6.582;2024-02-21T01:52:31;101836.66;;;9.58;89.22
73457;BME280;61691;53.072;6.582;2024-02-21T01:54:58;101821.19;;;9.52;89.32
73457;BME280;61691;53.072;6.582;2024-02-21T01:57:25;101839.84;;;9.63;89.49
73457;BME280;61691;53.072;6.582;2024-02-21T01:59:52;101827.97;;;9.56;89.67
73457;BME280;61691;53.072;6.582;2024-02-21T02:02:19;101820.34;;;9.52;89.48
73457;BME280;61691;53.072;6.582;2024-02-21T02:04:46;101827.97;;;9.56;89.65
73457;BME280;61691;53.072;6.582;2024-02-21T02:07:12;101828.19;;;9.53;89.95
73457;BME280;61691;53.072;6.582;2024-02-21T02:09:39;101818.00;;;9.47;89.95
73457;BME280;61691;53.072;6.582;2024-02-21T02:12:06;101813.97;;;9.42;90.01
73457;BME280;61691;53.072;6.582;2024-02-21T02:14:33;101815.25;;;9.49;90.38
73457;BME280;61691;53.072;6.582;2024-02-21T02:17:00;101831.78;;;9.52;90.36
73457;BME280;61691;53.072;6.582;2024-02-21T02:19:27;101807.63;;;9.44;90.51
73457;BME280;61691;53.072;6.582;2024-02-21T02:22:00;101818.47;;;9.54;90.41
73457;BME280;61691;53.072;6.582;2024-02-21T02:24:29;101816.94;;;9.50;90.42
73457;BME280;61691;53.072;6.582;2024-02-21T02:26:57;101817.59;;;9.53;90.68
73457;BME280;61691;53.072;6.582;2024-02-21T02:29:23;101732.31;;;8.98;90.72
73457;BME280;61691;53.072;6.582;2024-02-21T02:31:50;101829.03;;;9.54;91.28
73457;BME280;61691;53.072;6.582;2024-02-21T02:34:17;101823.28;;;9.47;91.23
73457;BME280;61691;53.072;6.582;2024-02-21T02:36:44;101801.25;;;9.34;91.16
73457;BME280;61691;53.072;6.582;2024-02-21T02:39:11;101808.16;;;9.49;91.65
73457;BME280;61691;53.072;6.582;2024-02-21T02:41:37;101811.22;;;9.43;91.82
73457;BME280;61691;53.072;6.582;2024-02-21T02:44:04;101791.53;;;9.35;91.88
73457;BME280;61691;53.072;6.582;2024-02-21T02:46:31;101739.81;;;9.04;91.70
73457;BME280;61691;53.072;6.582;2024-02-21T02:48:57;101794.91;;;9.37;91.99
73457;BME280;61691;53.072;6.582;2024-02-21T02:51:24;101787.84;;;9.37;91.88
73457;BME280;61691;53.072;6.582;2024-02-21T02:53:51;101778.19;;;9.36;91.99
73457;BME280;61691;53.072;6.582;2024-02-21T02:56:17;101800.03;;;9.40;92.53
73457;BME280;61691;53.072;6.582;2024-02-21T02:58:44;101798.00;;;9.43;92.21
73457;BME280;61691;53.072;6.582;2024-02-21T03:01:11;101787.09;;;9.35;92.08
73457;BME280;61691;53.072;6.582;2024-02-21T03:03:38;101764.81;;;9.25;92.59
73457;BME280;61691;53.072;6.582;2024-02-21T03:06:04;101798.00;;;9.43;92.41
73457;BME280;61691;53.072;6.582;2024-02-21T03:08:32;101788.59;;;9.39;92.60
73457;BME280;61691;53.072;6.582;2024-02-21T03:11:01;101793.88;;;9.39;92.59
73457;BME280;61691;53.072;6.582;2024-02-21T03:13:28;101778.19;;;9.36;92.99
73457;BME280;61691;53.072;6.582;2024-02-21T03:15:55;101761.22;;;9.26;92.62
73457;BME280;61691;53.072;6.582;2024-02-21T03:18:22;101781.38;;;9.41;92.71
73457;BME280;61691;53.072;6.582;2024-02-21T03:20:48;101779.03;;;9.37;93.04
73457;BME280;61691;53.072;6.582;2024-02-21T03:23:15;101773.09;;;9.33;93.21
73457;BME280;61691;53.072;6.582;2024-02-21T03:25:42;101750.47;;;9.29;92.97
73457;BME280;61691;53.072;6.582;2024-02-21T03:28:08;101784.75;;;9.43;92.88
73457;BME280;61691;53.072;6.582;2024-02-21T03:30:35;101745.34;;;9.26;93.22
73457;BME280;61691;53.072;6.582;2024-02-21T03:33:02;101772.72;;;9.39;92.92
73457;BME280;61691;53.072;6.582;2024-02-21T03:35:29;101771.00;;;9.38;93.15
73457;BME280;61691;53.072;6.582;2024-02-21T03:37:56;101772.28;;;9.45;92.91
73457;BME280;61691;53.072;6.582;2024-02-21T03:40:23;101767.19;;;9.42;93.06
73457;BME280;61691;53.072;6.582;2024-02-21T03:42:49;101768.88;;;9.43;93.30
73457;BME280;61691;53.072;6.582;2024-02-21T03:45:16;101785.19;;;9.50;93.37
73457;BME280;61691;53.072;6.582;2024-02-21T03:47:43;101770.59;;;9.44;93.12
73457;BME280;61691;53.072;6.582;2024-02-21T03:50:09;101780.94;;;9.47;93.11
73457;BME280;61691;53.072;6.582;2024-02-21T03:52:36;101779.47;;;9.43;93.37
73457;BME280;61691;53.072;6.582;2024-02-21T03:55:03;101781.16;;;9.44;93.48
73457;BME280;61691;53.072;6.582;2024-02-21T03:57:30;101779.47;;;9.43;93.41
73457;BME280;61691;53.072;6.582;2024-02-21T03:59:57;101768.88;;;9.43;93.61
73457;BME280;61691;53.072;6.582;2024-02-21T04:02:23;101757.69;;;9.40;93.58
73457;BME280;61691;53.072;6.582;2024-02-21T04:04:50;101759.34;;;9.41;93.54
73457;BME280;61691;53.072;6.582;2024-02-21T04:07:17;101757.44;;;9.43;93.63
73457;BME280;61691;53.072;6.582;2024-02-21T04:09:44;101731.19;;;9.27;93.73
73457;BME280;61691;53.072;6.582;2024-02-21T04:12:10;101696.47;;;9.06;93.84
73457;BME280;61691;53.072;6.582;2024-02-21T04:14:37;101714.78;;;9.22;93.60
73457;BME280;61691;53.072;6.582;2024-02-21T04:17:08;101746.97;;;9.41;93.71
73457;BME280;61691;53.072;6.582;2024-02-21T04:19:34;101736.06;;;9.33;93.65
73457;BME280;61691;53.072;6.582;2024-02-21T04:22:01;101732.56;;;9.32;93.78
73457;BME280;61691;53.072;6.582;2024-02-21T04:24:28;101734.16;;;9.35;93.93
73457;BME280;61691;53.072;6.582;2024-02-21T04:26:55;101744.53;;;9.38;94.07
73457;BME280;61691;53.072;6.582;2024-02-21T04:29:21;101751.72;;;9.36;94.14
73457;BME280;61691;53.072;6.582;2024-02-21T04:31:48;101734.81;;;9.39;94.03
73457;BME280;61691;53.072;6.582;2024-02-21T04:34:15;101748.47;;;9.45;93.97
73457;BME280;61691;53.072;6.582;2024-02-21T04:36:42;101751.97;;;9.46;93.89
73457;BME280;61691;53.072;6.582;2024-02-21T04:39:10;101746.75;;;9.44;94.08
73457;BME280;61691;53.072;6.582;2024-02-21T04:41:37;101732.25;;;9.37;94.13
73457;BME280;61691;53.072;6.582;2024-02-21T04:44:04;101742.00;;;9.49;93.94
73457;BME280;61691;53.072;6.582;2024-02-21T04:46:31;101736.94;;;9.46;94.41
73457;BME280;61691;53.072;6.582;2024-02-21T04:48:58;101723.16;;;9.41;94.09
73457;BME280;61691;53.072;6.582;2024-02-21T04:51:24;101728.88;;;9.48;94.28
73457;BME280;61691;53.072;6.582;2024-02-21T04:53:51;101718.41;;;9.46;94.36
73457;BME280;61691;53.072;6.582;2024-02-21T04:56:18;101713.81;;;9.48;94.28
73457;BME280;61691;53.072;6.582;2024-02-21T04:58:44;101710.25;;;9.49;94.29
73457;BME280;61691;53.072;6.582;2024-02-21T05:01:11;101696.69;;;9.41;94.25
73457;BME280;61691;53.072;6.582;2024-02-21T05:03:38;101685.38;;;9.39;94.39
73457;BME280;61691;53.072;6.582;2024-02-21T05:06:05;101691.19;;;9.44;94.31
73457;BME280;61691;53.072;6.582;2024-02-21T05:08:32;101709.19;;;9.52;94.13
73457;BME280;61691;53.072;6.582;2024-02-21T05:10:58;101708.13;;;9.54;94.69
73457;BME280;61691;53.072;6.582;2024-02-21T05:13:25;101636.25;;;9.10;94.54
73457;BME280;61691;53.072;6.582;2024-02-21T05:15:52;101704.75;;;9.52;94.51
73457;BME280;61691;53.072;6.582;2024-02-21T05:18:19;101699.56;;;9.51;94.39
73457;BME280;61691;53.072;6.582;2024-02-21T05:20:47;101700.28;;;9.53;94.24
73457;BME280;61691;53.072;6.582;2024-02-21T05:23:13;101711.50;;;9.56;94.39
73457;BME280;61691;53.072;6.582;2024-02-21T05:25:40;101684.31;;;9.42;94.19
73457;BME280;61691;53.072;6.582;2024-02-21T05:28:07;101696.06;;;9.50;94.36
73457;BME280;61691;53.072;6.582;2024-02-21T05:30:34;101665.38;;;9.35;94.31
73457;BME280;61691;53.072;6.582;2024-02-21T05:33:05;101703.03;;;9.51;94.46
73457;BME280;61691;53.072;6.582;2024-02-21T05:35:34;101710.78;;;9.54;94.07
73457;BME280;61691;53.072;6.582;2024-02-21T05:38:00;101702.41;;;9.48;94.23
73457;BME280;61691;53.072;6.582;2024-02-21T05:40:27;101700.59;;;9.48;94.21
73457;BME280;61691;53.072;6.582;2024-02-21T05:42:54;101702.53;;;9.46;94.34
73457;BME280;61691;53.072;6.582;2024-02-21T05:45:21;101637.00;;;9.12;94.54
73457;BME280;61691;53.072;6.582;2024-02-21T05:47:47;101706.63;;;9.50;94.74
73457;BME280;61691;53.072;6.582;2024-02-21T05:50:14;101690.84;;;9.49;94.11
73457;BME280;61691;53.072;6.582;2024-02-21T05:52:41;101672.56;;;9.46;94.32
73457;BME280;61691;53.072;6.582;2024-02-21T05:55:08;101670.13;;;9.43;94.23
73457;BME280;61691;53.072;6.582;2024-02-21T05:57:37;101649.72;;;9.32;94.38
73457;BME280;61691;53.072;6.582;2024-02-21T06:00:05;101678.47;;;9.49;94.46
73457;BME280;61691;53.072;6.582;2024-02-21T06:02:32;101671.72;;;9.45;94.63
73457;BME280;61691;53.072;6.582;2024-02-21T06:04:59;101634.56;;;9.34;94.20
73457;BME280;61691;53.072;6.582;2024-02-21T06:07:26;101639.00;;;9.33;94.41
73457;BME280;61691;53.072;6.582;2024-02-21T06:09:53;101652.25;;;9.46;94.55
73457;BME280;61691;53.072;6.582;2024-02-21T06:12:20;101564.44;;;8.90;94.02
73457;BME280;61691;53.072;6.582;2024-02-21T06:14:46;101654.16;;;9.44;94.21
73457;BME280;61691;53.072;6.582;2024-02-21T06:17:14;101648.44;;;9.38;94.40
73457;BME280;61691;53.072;6.582;2024-02-21T06:19:43;101634.66;;;9.32;94.25
73457;BME280;61691;53.072;6.582;2024-02-21T06:22:09;101651.41;;;9.46;94.23
73457;BME280;61691;53.072;6.582;2024-02-21T06:24:36;101648.41;;;9.50;94.27
73457;BME280;61691;53.072;6.582;2024-02-21T06:27:06;101648.41;;;9.50;94.31
73457;BME280;61691;53.072;6.582;2024-02-21T06:29:37;101608.34;;;9.31;94.48
73457;BME280;61691;53.072;6.582;2024-02-21T06:32:03;101630.22;;;9.46;94.20
73457;BME280;61691;53.072;6.582;2024-02-21T06:34:31;101641.53;;;9.48;94.31
73457;BME280;61691;53.072;6.582;2024-02-21T06:37:00;101634.97;;;9.41;94.46
73457;BME280;61691;53.072;6.582;2024-02-21T06:39:27;101617.84;;;9.33;94.53
73457;BME280;61691;53.072;6.582;2024-02-21T06:41:55;101624.91;;;9.33;94.33
73457;BME280;61691;53.072;6.582;2024-02-21T06:44:27;101644.41;;;9.45;94.20
73457;BME280;61691;53.072;6.582;2024-02-21T06:46:54;101633.91;;;9.43;94.25
73457;BME280;61691;53.072;6.582;2024-02-21T06:49:21;101624.72;;;9.36;94.38
73457;BME280;61691;53.072;6.582;2024-02-21T06:51:48;101602.72;;;9.23;94.53
73457;BME280;61691;53.072;6.582;2024-02-21T06:54:15;101658.06;;;9.51;94.61
73457;BME280;61691;53.072;6.582;2024-02-21T06:56:42;101645.66;;;9.52;94.46
73457;BME280;61691;53.072;6.582;2024-02-21T06:59:08;101643.47;;;9.46;94.36
73457;BME280;61691;53.072;6.582;2024-02-21T07:01:35;101636.22;;;9.48;94.25
73457;BME280;61691;53.072;6.582;2024-02-21T07:04:02;101635.94;;;9.40;94.41
73457;BME280;61691;53.072;6.582;2024-02-21T07:06:29;101634.66;;;9.45;94.46
73457;BME280;61691;53.072;6.582;2024-02-21T07:09:00;101620.38;;;9.35;94.49
73457;BME280;61691;53.072;6.582;2024-02-21T07:11:27;101645.97;;;9.47;94.64
73457;BME280;61691;53.072;6.582;2024-02-21T07:13:53;101633.19;;;9.41;94.50
73457;BME280;61691;53.072;6.582;2024-02-21T07:16:20;101617.53;;;9.38;94.69
73457;BME280;61691;53.072;6.582;2024-02-21T07:18:48;101633.19;;;9.54;94.51
73457;BME280;61691;53.072;6.582;2024-02-21T07:21:15;101634.03;;;9.54;94.38
73457;BME280;61691;53.072;6.582;2024-02-21T07:23:42;101626.19;;;9.53;94.49
73457;BME280;61691;53.072;6.582;2024-02-21T07:26:08;101614.75;;;9.52;94.33
73457;BME280;61691;53.072;6.582;2024-02-21T07:28:35;101608.72;;;9.50;94.49
73457;BME280;61691;53.072;6.582;2024-02-21T07:31:02;101628.50;;;9.57;94.45
73457;BME280;61691;53.072;6.582;2024-02-21T07:33:29;101605.88;;;9.53;94.38
73457;BME280;61691;53.072;6.582;2024-02-21T07:35:57;101556.81;;;9.24;94.54
73457;BME280;61691;53.072;6.582;2024-02-21T07:38:23;101585.34;;;9.44;94.47
73457;BME280;61691;53.072;6.582;2024-02-21T07:40:50;101595.47;;;9.50;94.45
73457;BME280;61691;53.072;6.582;2024-02-21T07:43:17;101609.03;;;9.58;94.34
73457;BME280;61691;53.072;6.582;2024-02-21T07:45:44;101606.28;;;9.60;94.88
73457;BME280;61691;53.072;6.582;2024-02-21T07:48:11;101601.59;;;9.63;94.92
73457;BME280;61691;53.072;6.582;2024-02-21T07:50:37;101527.81;;;9.22;94.56
73457;BME280;61691;53.072;6.582;2024-02-21T07:53:04;101586.53;;;9.64;94.61
73457;BME280;61691;53.072;6.582;2024-02-21T07:55:31;101538.34;;;9.35;94.25
73457;BME280;61691;53.072;6.582;2024-02-21T07:57:58;101583.06;;;9.63;94.35
73457;BME280;61691;53.072;6.582;2024-02-21T08:00:24;101580.41;;;9.63;94.43
73457;BME280;61691;53.072;6.582;2024-02-21T08:02:51;101585.69;;;9.63;94.71
73457;BME280;61691;53.072;6.582;2024-02-21T08:05:18;101579.25;;;9.55;94.27
73457;BME280;61691;53.072;6.582;2024-02-21T08:07:45;101589.84;;;9.67;94.35
73457;BME280;61691;53.072;6.582;2024-02-21T08:10:12;101531.59;;;9.31;94.19
73457;BME280;61691;53.072;6.582;2024-02-21T08:12:38;101582.09;;;9.64;94.23
73457;BME280;61691;53.072;6.582;2024-02-21T08:15:05;101582.94;;;9.65;94.40
73457;BME280;61691;53.072;6.582;2024-02-21T08:17:34;101582.19;;;9.63;94.23
73457;BME280;61691;53.072;6.582;2024-02-21T08:20:01;101553.59;;;9.44;94.41
73457;BME280;61691;53.072;6.582;2024-02-21T08:22:28;101581.25;;;9.64;94.30
73457;BME280;61691;53.072;6.582;2024-02-21T08:24:55;101563.50;;;9.53;94.57
73457;BME280;61691;53.072;6.582;2024-02-21T08:27:21;101566.88;;;9.55;94.44
73457;BME280;61691;53.072;6.582;2024-02-21T08:29:48;101556.28;;;9.55;94.21
73457;BME280;61691;53.072;6.582;2024-02-21T08:32:15;101565.38;;;9.64;94.21
73457;BME280;61691;53.072;6.582;2024-02-21T08:34:41;101566.66;;;9.58;94.40
73457;BME280;61691;53.072;6.582;2024-02-21T08:37:08;101559.47;;;9.60;94.22
73457;BME280;61691;53.072;6.582;2024-02-21T08:39:37;101553.44;;;9.58;94.01
73457;BME280;61691;53.072;6.582;2024-02-21T08:42:04;101533.56;;;9.53;93.92
73457;BME280;61691;53.072;6.582;2024-02-21T08:44:31;101542.19;;;9.55;94.15
73457;BME280;61691;53.072;6.582;2024-02-21T08:46:57;101524.75;;;9.52;94.07
73457;BME280;61691;53.072;6.582;2024-02-21T08:49:24;101444.38;;;9.06;93.79
73457;BME280;61691;53.072;6.582;2024-02-21T08:52:00;101529.41;;;9.61;93.95
73457;BME280;61691;53.072;6.582;2024-02-21T08:54:28;101531.50;;;9.56;93.51
73457;BME280;61691;53.072;6.582;2024-02-21T08:56:55;101544.19;;;9.64;93.81
73457;BME280;61691;53.072;6.582;2024-02-21T08:59:21;101538.19;;;9.62;93.67
73457;BME280;61691;53.072;6.582;2024-02-21T09:01:48;101495.13;;;9.47;93.53
73457;BME280;61691;53.072;6.582;2024-02-21T09:04:15;101502.28;;;9.58;93.67
73457;BME280;61691;53.072;6.582;2024-02-21T09:06:42;101507.75;;;9.67;93.54
73457;BME280;61691;53.072;6.582;2024-02-21T09:09:09;101497.63;;;9.61;93.71
73457;BME280;61691;53.072;6.582;2024-02-21T09:11:36;101503.31;;;9.68;93.21
73457;BME280;61691;53.072;6.582;2024-02-21T09:14:03;101490.66;;;9.60;93.33
73457;BME280;61691;53.072;6.582;2024-02-21T09:16:33;101478.81;;;9.53;93.40
73457;BME280;61691;53.072;6.582;2024-02-21T09:19:00;101482.69;;;9.60;93.17
73457;BME280;61691;53.072;6.582;2024-02-21T09:21:27;101495.47;;;9.66;93.19
73457;BME280;61691;53.072;6.582;2024-02-21T09:23:55;101498.88;;;9.68;93.26
73457;BME280;61691;53.072;6.582;2024-02-21T09:26:25;101510.59;;;9.77;93.20
73457;BME280;61691;53.072;6.582;2024-02-21T09:28:52;101478.66;;;9.67;93.01
73457;BME280;61691;53.072;6.582;2024-02-21T09:31:19;101501.16;;;9.73;92.71
73457;BME280;61691;53.072;6.582;2024-02-21T09:33:46;101501.91;;;9.75;92.59
73457;BME280;61691;53.072;6.582;2024-02-21T09:36:13;101493.78;;;9.65;92.73
73457;BME280;61691;53.072;6.582;2024-02-21T09:38:40;101501.38;;;9.70;92.88
73457;BME280;61691;53.072;6.582;2024-02-21T09:41:16;101500.22;;;9.74;92.73
73457;BME280;61691;53.072;6.582;2024-02-21T09:43:51;101491.63;;;9.70;92.51
73457;BME280;61691;53.072;6.582;2024-02-21T09:46:24;101494.28;;;9.70;92.34
73457;BME280;61691;53.072;6.582;2024-02-21T09:51:36;101481.78;;;9.73;92.32
73457;BME280;61691;53.072;6.582;2024-02-21T09:54:05;101450.88;;;9.49;91.86
73457;BME280;61691;53.072;6.582;2024-02-21T09:56:45;101459.09;;;9.57;92.07
73457;BME280;61691;53.072;6.582;2024-02-21T09:59:14;101471.56;;;9.68;92.00
73457;BME280;61691;53.072;6.582;2024-02-21T10:01:42;101464.09;;;9.73;92.29
73457;BME280;61691;53.072;6.582;2024-02-21T10:04:10;101457.34;;;9.69;91.89
73457;BME280;61691;53.072;6.582;2024-02-21T10:06:37;101449.06;;;9.74;91.93
73457;BME280;61691;53.072;6.582;2024-02-21T10:09:06;101447.16;;;9.76;91.87
73457;BME280;61691;53.072;6.582;2024-02-21T10:11:33;101424.22;;;9.63;91.85
73457;BME280;61691;53.072;6.582;2024-02-21T10:14:07;101442.34;;;9.81;91.70
73457;BME280;61691;53.072;6.582;2024-02-21T10:16:34;101394.63;;;9.58;91.15
73457;BME280;61691;53.072;6.582;2024-02-21T10:19:01;101437.53;;;9.86;91.28
73457;BME280;61691;53.072;6.582;2024-02-21T10:21:30;101406.72;;;9.74;90.78
73457;BME280;61691;53.072;6.582;2024-02-21T10:23:57;101429.50;;;9.87;91.07
73457;BME280;61691;53.072;6.582;2024-02-21T10:26:23;101430.22;;;9.89;90.82
73457;BME280;61691;53.072;6.582;2024-02-21T10:28:50;101412.53;;;9.90;90.90
73457;BME280;61691;53.072;6.582;2024-02-21T10:31:24;101408.94;;;9.91;90.96
73457;BME280;61691;53.072;6.582;2024-02-21T10:33:59;101407.41;;;9.99;90.78
73457;BME280;61691;53.072;6.582;2024-02-21T10:36:26;101403.91;;;10.10;90.64
73457;BME280;61691;53.072;6.582;2024-02-21T10:38:53;101386.31;;;10.09;90.65
73457;BME280;61691;53.072;6.582;2024-02-21T10:41:24;101383.09;;;10.17;89.88
73457;BME280;61691;53.072;6.582;2024-02-21T10:43:53;101387.13;;;10.22;89.92
73457;BME280;61691;53.072;6.582;2024-02-21T10:46:23;101355.38;;;10.09;90.31
73457;BME280;61691;53.072;6.582;2024-02-21T10:49:06;101349.28;;;10.20;89.27
73457;BME280;61691;53.072;6.582;2024-02-21T10:51:34;101370.97;;;10.25;89.32
73457;BME280;61691;53.072;6.582;2024-02-21T10:57:13;101364.72;;;10.37;88.95
73457;BME280;61691;53.072;6.582;2024-02-21T10:59:40;101354.13;;;10.37;88.88
73457;BME280;61691;53.072;6.582;2024-02-21T11:02:07;101342.06;;;10.33;88.63
73457;BME280;61691;53.072;6.582;2024-02-21T11:04:35;101349.53;;;10.51;88.16
73457;BME280;61691;53.072;6.582;2024-02-21T11:07:04;101337.59;;;10.56;87.59
73457;BME280;61691;53.072;6.582;2024-02-21T11:09:36;101347.13;;;10.59;87.14
73457;BME280;61691;53.072;6.582;2024-02-21T11:12:05;101342.50;;;10.61;86.00
73457;BME280;61691;53.072;6.582;2024-02-21T11:14:33;101344.94;;;10.64;86.21
73457;BME280;61691;53.072;6.582;2024-02-21T11:17:14;101317.47;;;10.54;86.52
73457;BME280;61691;53.072;6.582;2024-02-21T11:19:41;101306.50;;;10.58;86.17
73457;BME280;61691;53.072;6.582;2024-02-21T11:22:19;101319.38;;;10.63;85.92
73457;BME280;61691;53.072;6.582;2024-02-21T11:24:46;101317.06;;;10.69;86.03
73457;BME280;61691;53.072;6.582;2024-02-21T11:27:19;101311.41;;;10.74;85.93
73457;BME280;61691;53.072;6.582;2024-02-21T11:29:56;101311.66;;;10.82;85.45
73457;BME280;61691;53.072;6.582;2024-02-21T11:32:23;101245.66;;;10.45;85.26
73457;BME280;61691;53.072;6.582;2024-02-21T11:35:00;101295.50;;;10.74;84.90
73457;BME280;61691;53.072;6.582;2024-02-21T11:37:35;101279.03;;;10.59;84.52
73457;BME280;61691;53.072;6.582;2024-02-21T11:40:06;101265.16;;;10.56;84.42
73457;BME280;61691;53.072;6.582;2024-02-21T11:42:38;101267.59;;;10.59;84.21
73457;BME280;61691;53.072;6.582;2024-02-21T11:45:05;101237.03;;;10.43;84.48
73457;BME280;61691;53.072;6.582;2024-02-21T11:47:33;101258.91;;;10.57;84.33
73457;BME280;61691;53.072;6.582;2024-02-21T11:50:00;101244.94;;;10.55;84.26
73457;BME280;61691;53.072;6.582;2024-02-21T11:52:27;101237.03;;;10.43;83.59
73457;BME280;61691;53.072;6.582;2024-02-21T11:54:55;101225.56;;;10.43;83.95
73457;BME280;61691;53.072;6.582;2024-02-21T11:57:24;101224.22;;;10.48;84.04
73457;BME280;61691;53.072;6.582;2024-02-21T11:59:51;101208.56;;;10.45;83.63
73457;BME280;61691;53.072;6.582;2024-02-21T12:02:26;101203.03;;;10.48;83.66
73457;BME280;61691;53.072;6.582;2024-02-21T12:04:53;101193.44;;;10.36;83.67
73457;BME280;61691;53.072;6.582;2024-02-21T12:07:21;101179.22;;;10.37;83.61
73457;BME280;61691;53.072;6.582;2024-02-21T12:09:51;101171.25;;;10.37;83.42
73457;BME280;61691;53.072;6.582;2024-02-21T12:12:20;101174.59;;;10.39;83.48
73457;BME280;61691;53.072;6.582;2024-02-21T12:14:54;101123.97;;;10.10;82.86
73457;BME280;61691;53.072;6.582;2024-02-21T12:17:22;101163.56;;;10.34;83.35
73457;BME280;61691;53.072;6.582;2024-02-21T12:19:50;101170.53;;;10.35;83.11
73457;BME280;61691;53.072;6.582;2024-02-21T12:22:20;101143.56;;;10.30;82.85
73457;BME280;61691;53.072;6.582;2024-02-21T12:24:47;101134.53;;;10.33;83.04
73457;BME280;61691;53.072;6.582;2024-02-21T12:27:15;101124.78;;;10.33;82.90
73457;BME280;61691;53.072;6.582;2024-02-21T12:29:42;101104.06;;;10.27;82.74
73457;BME280;61691;53.072;6.582;2024-02-21T12:32:09;101126.03;;;10.50;82.93
73457;BME280;61691;53.072;6.582;2024-02-21T12:34:35;101077.06;;;10.33;82.28
73457;BME280;61691;53.072;6.582;2024-02-21T12:37:18;101095.06;;;10.51;82.51
73457;BME280;61691;53.072;6.582;2024-02-21T12:39:47;101068.81;;;10.47;82.37
73457;BME280;61691;53.072;6.582;2024-02-21T12:42:14;101136.22;;;10.66;82.59
73457;BME280;61691;53.072;6.582;2024-02-21T12:44:40;101121.00;;;10.68;82.06
73457;BME280;61691;53.072;6.582;2024-02-21T12:47:08;101119.34;;;10.67;82.19
73457;BME280;61691;53.072;6.582;2024-02-21T12:49:35;101113.19;;;10.66;82.24
73457;BME280;61691;53.072;6.582;2024-02-21T12:52:03;101107.75;;;10.68;81.82
73457;BME280;61691;53.072;6.582;2024-02-21T12:54:30;101089.56;;;10.63;81.03
73457;BME280;61691;53.072;6.582;2024-02-21T12:56:58;101081.75;;;10.62;81.35
73457;BME280;61691;53.072;6.582;2024-02-21T12:59:29;101089.50;;;10.54;81.09
73457;BME280;61691;53.072;6.582;2024-02-21T13:01:56;101006.06;;;10.16;80.72
73457;BME280;61691;53.072;6.582;2024-02-21T13:04:23;101041.88;;;10.42;80.99
73457;BME280;61691;53.072;6.582;2024-02-21T13:06:54;101041.59;;;10.45;80.84